createdAt,value
2023-03-22T00:00:17.029Z,7.55
2023-03-22T00:02:49.159Z,8.13
2023-03-22T00:05:18.528Z,5.88
2023-03-22T00:07:50.347Z,7.93
2023-03-22T00:10:19.901Z,7.90
2023-03-22T00:12:46.820Z,6.82
2023-03-22T00:15:15.434Z,4.00
2023-03-22T00:17:45.540Z,8.18
2023-03-22T00:20:14.793Z,6.63
2023-03-22T00:22:41.698Z,6.40
2023-03-22T00:25:11.199Z,4.75
2023-03-22T00:27:40.486Z,7.38
2023-03-22T00:30:08.322Z,6.50
2023-03-22T00:32:38.322Z,7.43
2023-03-22T00:35:11.008Z,9.82
2023-03-22T00:37:43.188Z,10.10
2023-03-22T00:40:16.200Z,7.07
2023-03-22T00:42:44.284Z,8.05
2023-03-22T00:45:13.854Z,5.95
2023-03-22T00:47:42.977Z,9.05
2023-03-22T00:50:11.188Z,7.07
2023-03-22T00:52:38.210Z,10.48
2023-03-22T00:55:08.529Z,9.00
2023-03-22T00:57:35.560Z,8.70
2023-03-22T01:00:10.874Z,5.72
2023-03-22T01:02:40.055Z,11.10
2023-03-22T01:05:09.787Z,8.77
2023-03-22T01:07:41.665Z,13.48
2023-03-22T01:10:09.580Z,9.18
2023-03-22T01:12:40.650Z,10.70
2023-03-22T01:15:13.009Z,6.75
2023-03-22T01:17:43.297Z,9.07
2023-03-22T01:20:11.261Z,7.18
2023-03-22T01:22:40.896Z,6.38
2023-03-22T01:25:10.988Z,10.50
2023-03-22T01:27:40.078Z,7.05
2023-03-22T01:30:10.510Z,7.82
2023-03-22T01:32:38.173Z,8.30
2023-03-22T01:35:08.367Z,7.80
2023-03-22T01:37:38.371Z,6.35
2023-03-22T01:40:10.934Z,9.77
2023-03-22T01:42:43.441Z,9.60
2023-03-22T01:45:15.860Z,8.95
2023-03-22T01:48:01.657Z,8.15
2023-03-22T01:50:33.723Z,9.80
2023-03-22T01:53:05.110Z,7.63
2023-03-22T01:55:37.149Z,11.40
2023-03-22T01:58:18.229Z,10.07
2023-03-22T02:00:54.491Z,10.30
2023-03-22T02:03:53.671Z,7.88
2023-03-22T02:06:21.616Z,8.35
2023-03-22T02:08:57.955Z,11.25
2023-03-22T02:11:29.790Z,10.18
2023-03-22T02:14:13.277Z,10.05
2023-03-22T02:17:10.313Z,6.65
2023-03-22T02:20:10.427Z,12.77
2023-03-22T02:22:40.627Z,13.23
2023-03-22T02:28:07.781Z,13.40
2023-03-22T02:30:55.843Z,14.18
2023-03-22T02:34:02.913Z,12.32
2023-03-22T02:36:44.230Z,11.25
2023-03-22T02:39:46.269Z,8.10
2023-03-22T02:42:34.181Z,14.18
2023-03-22T02:45:19.869Z,12.82
2023-03-22T02:48:00.911Z,10.10
2023-03-22T02:50:45.537Z,8.85
2023-03-22T02:53:28.163Z,5.57
2023-03-22T02:55:59.562Z,10.38
2023-03-22T02:58:36.284Z,11.27
2023-03-22T03:03:37.674Z,8.65
2023-03-22T03:06:10.635Z,9.73
2023-03-22T03:08:40.333Z,17.38
2023-03-22T03:11:11.751Z,9.45
2023-03-22T03:13:38.774Z,8.52
2023-03-22T03:16:17.617Z,9.40
2023-03-22T03:18:57.390Z,9.57
2023-03-22T03:21:49.258Z,7.93
2023-03-22T03:24:50.889Z,6.78
2023-03-22T03:27:23.552Z,6.60
2023-03-22T03:30:08.933Z,11.05
2023-03-22T03:32:46.269Z,10.88
2023-03-22T03:35:22.655Z,12.88
2023-03-22T03:37:54.042Z,10.15
2023-03-22T03:40:31.120Z,8.10
2023-03-22T03:42:59.158Z,9.02
2023-03-22T03:45:30.644Z,6.18
2023-03-22T03:48:01.459Z,9.55
2023-03-22T03:50:33.233Z,8.93
2023-03-22T03:53:02.344Z,9.18
2023-03-22T03:55:32.408Z,8.40
2023-03-22T03:58:01.593Z,6.60
2023-03-22T04:00:28.553Z,8.48
2023-03-22T04:03:26.910Z,7.95
2023-03-22T04:06:14.162Z,4.35
2023-03-22T04:08:53.836Z,10.60
2023-03-22T04:11:28.958Z,8.98
2023-03-22T04:14:00.202Z,9.20
2023-03-22T04:16:29.452Z,10.55
2023-03-22T04:19:01.099Z,9.23
2023-03-22T04:21:30.260Z,8.98
2023-03-22T04:24:02.391Z,7.22
2023-03-22T04:26:34.317Z,4.95
2023-03-22T04:29:13.175Z,5.72
2023-03-22T04:31:44.803Z,2.92
2023-03-22T04:34:20.626Z,7.10
2023-03-22T04:36:56.769Z,6.70
2023-03-22T04:39:28.373Z,5.10
2023-03-22T04:42:13.315Z,4.28
2023-03-22T04:44:41.034Z,4.55
2023-03-22T04:47:10.681Z,5.93
2023-03-22T04:49:37.768Z,5.28
2023-03-22T04:52:07.815Z,2.60
2023-03-22T04:54:37.688Z,6.10
2023-03-22T04:57:07.110Z,3.60
2023-03-22T04:59:42.456Z,5.63
2023-03-22T05:02:12.359Z,6.20
2023-03-22T05:04:42.564Z,2.33
2023-03-22T05:07:24.429Z,3.10
2023-03-22T05:09:56.059Z,2.63
2023-03-22T05:12:27.799Z,4.53
2023-03-22T05:15:06.173Z,2.72
2023-03-22T05:17:36.732Z,4.10
2023-03-22T05:20:10.074Z,6.03
2023-03-22T05:22:45.946Z,3.10
2023-03-22T05:25:14.132Z,3.97
2023-03-22T05:27:44.353Z,6.45
2023-03-22T05:30:29.842Z,5.32
2023-03-22T05:33:03.850Z,3.92
2023-03-22T05:35:40.601Z,4.15
2023-03-22T05:38:08.955Z,5.88
2023-03-22T05:40:40.452Z,4.82
2023-03-22T05:43:07.634Z,4.28
2023-03-22T05:45:38.115Z,5.32
2023-03-22T05:48:26.948Z,5.20
2023-03-22T05:50:53.944Z,5.90
2023-03-22T05:53:23.597Z,5.45
2023-03-22T05:56:21.876Z,3.17
2023-03-22T05:58:49.631Z,5.80
2023-03-22T06:01:21.568Z,4.70
2023-03-22T06:03:51.649Z,2.85
2023-03-22T06:06:45.980Z,3.88
2023-03-22T06:09:27.548Z,4.72
2023-03-22T06:11:55.753Z,5.78
2023-03-22T06:14:23.732Z,2.58
2023-03-22T06:17:00.258Z,5.32
2023-03-22T06:19:29.629Z,3.75
2023-03-22T06:22:00.616Z,5.78
2023-03-22T06:24:27.903Z,6.35
2023-03-22T06:26:57.469Z,3.78
2023-03-22T06:29:30.965Z,2.83
2023-03-22T06:32:02.245Z,3.63
2023-03-22T06:34:32.679Z,5.22
2023-03-22T06:37:05.712Z,5.22
2023-03-22T06:39:37.835Z,2.78
2023-03-22T06:42:04.916Z,3.58
2023-03-22T06:44:32.381Z,5.70
2023-03-22T06:47:18.059Z,4.45
2023-03-22T06:49:47.582Z,4.82
2023-03-22T06:52:22.317Z,3.15
2023-03-22T06:54:51.739Z,3.22
2023-03-22T06:57:19.685Z,3.00
2023-03-22T06:59:48.962Z,3.97
2023-03-22T07:02:18.178Z,6.30
2023-03-22T07:05:05.564Z,6.90
2023-03-22T07:07:34.869Z,5.38
2023-03-22T07:10:04.623Z,3.70
2023-03-22T07:12:31.889Z,5.95
2023-03-22T07:15:07.541Z,12.10
2023-03-22T07:17:46.962Z,5.32
2023-03-22T07:20:18.702Z,5.47
2023-03-22T07:22:50.916Z,8.07
2023-03-22T07:25:22.911Z,4.63
2023-03-22T07:27:57.207Z,6.63
2023-03-22T07:30:24.432Z,7.70
2023-03-22T07:32:51.606Z,10.40
2023-03-22T07:35:19.021Z,8.40
2023-03-22T07:37:53.182Z,7.53
2023-03-22T07:40:27.213Z,9.05
2023-03-22T07:42:56.046Z,9.38
2023-03-22T07:45:49.194Z,8.25
2023-03-22T07:48:41.831Z,8.88
2023-03-22T07:51:23.673Z,6.07
2023-03-22T07:53:53.134Z,8.45
2023-03-22T07:56:20.581Z,9.73
2023-03-22T07:58:49.768Z,10.00
2023-03-22T08:01:17.103Z,7.28
2023-03-22T08:04:01.757Z,10.15
2023-03-22T08:06:49.017Z,14.45
2023-03-22T08:09:17.354Z,10.80
2023-03-22T08:11:44.436Z,10.65
2023-03-22T08:14:14.216Z,9.20
2023-03-22T08:16:43.419Z,9.18
2023-03-22T08:19:16.278Z,7.57
2023-03-22T08:21:48.130Z,8.68
2023-03-22T08:24:32.234Z,12.95
2023-03-22T08:27:07.468Z,10.10
2023-03-22T08:29:49.573Z,11.55
2023-03-22T08:32:19.211Z,16.33
2023-03-22T08:34:48.478Z,8.25
2023-03-22T08:37:16.175Z,8.27
2023-03-22T08:39:49.795Z,7.88
2023-03-22T08:42:21.539Z,4.38
2023-03-22T08:44:49.290Z,8.63
2023-03-22T08:47:16.244Z,6.53
2023-03-22T08:49:50.128Z,4.57
2023-03-22T08:52:23.932Z,4.78
2023-03-22T08:54:54.540Z,5.68
2023-03-22T08:57:42.104Z,4.65
2023-03-22T09:00:39.057Z,7.50
2023-03-22T09:03:47.446Z,6.15
2023-03-22T09:06:19.333Z,5.05
2023-03-22T09:08:47.270Z,4.72
2023-03-22T09:11:17.905Z,2.70
2023-03-22T09:13:48.413Z,5.88
2023-03-22T09:16:16.613Z,6.20
2023-03-22T09:18:47.247Z,4.43
2023-03-22T09:21:23.139Z,7.05
2023-03-22T09:23:53.929Z,6.35
2023-03-22T09:26:28.766Z,4.07
2023-03-22T09:28:57.901Z,6.15
2023-03-22T09:31:25.003Z,6.03
2023-03-22T09:34:03.931Z,4.60
2023-03-22T09:36:32.454Z,4.28
2023-03-22T09:38:59.522Z,4.10
2023-03-22T09:41:38.555Z,3.55
2023-03-22T09:44:08.346Z,4.28
2023-03-22T09:46:42.359Z,2.47
2023-03-22T09:49:17.190Z,3.55
2023-03-22T09:54:23.162Z,2.50
2023-03-22T09:56:56.406Z,1.60
2023-03-22T09:59:48.848Z,4.30
2023-03-22T10:02:30.670Z,1.45
2023-03-22T10:05:17.412Z,2.95
2023-03-22T10:08:12.106Z,2.15
2023-03-22T10:10:44.297Z,1.13
2023-03-22T10:13:20.913Z,1.75
2023-03-22T10:15:52.703Z,1.83
2023-03-22T10:18:27.392Z,2.13
2023-03-22T10:21:04.165Z,1.15
2023-03-22T10:23:50.579Z,0.93
2023-03-22T10:26:31.857Z,2.65
2023-03-22T10:29:12.587Z,4.10
2023-03-22T10:31:43.433Z,4.65
2023-03-22T10:34:16.783Z,3.10
2023-03-22T10:36:46.173Z,2.38
2023-03-22T10:39:33.520Z,1.77
2023-03-22T10:42:07.430Z,3.70
2023-03-22T10:44:39.208Z,2.22
2023-03-22T10:47:08.407Z,1.52
2023-03-22T10:49:49.868Z,1.75
2023-03-22T10:52:40.568Z,0.68
2023-03-22T10:55:13.190Z,1.95
2023-03-22T10:57:43.015Z,2.28
2023-03-22T11:00:13.805Z,3.33
2023-03-22T11:03:01.730Z,1.13
2023-03-22T11:05:31.229Z,2.47
2023-03-22T11:08:02.140Z,1.67
2023-03-22T11:10:33.417Z,2.10
2023-03-22T11:13:09.770Z,0.98
2023-03-22T11:15:39.435Z,3.25
2023-03-22T11:18:10.561Z,2.75
2023-03-22T11:20:52.319Z,2.30
2023-03-22T11:23:21.734Z,1.90
2023-03-22T11:25:51.665Z,5.15
2023-03-22T11:28:23.426Z,0.70
2023-03-22T11:31:04.200Z,0.60
2023-03-22T11:33:31.402Z,1.77
2023-03-22T11:36:03.995Z,2.03
2023-03-22T11:38:39.154Z,1.55
2023-03-22T11:41:34.345Z,1.00
2023-03-22T11:44:05.353Z,1.02
2023-03-22T11:46:32.417Z,0.88
2023-03-22T11:49:01.906Z,0.35
2023-03-22T11:51:35.285Z,0.10
2023-03-22T11:54:15.905Z,1.13
2023-03-22T11:56:45.292Z,0.15
2023-03-22T11:59:16.844Z,1.05
2023-03-22T12:02:31.723Z,0.60
2023-03-22T12:05:31.062Z,1.10
2023-03-22T12:08:18.068Z,0.88
2023-03-22T12:10:47.335Z,1.73
2023-03-22T12:13:25.087Z,1.60
2023-03-22T12:16:01.978Z,0.75
2023-03-22T12:18:47.881Z,0.43
2023-03-22T12:21:17.061Z,1.30
2023-03-22T12:23:49.052Z,0.52
2023-03-22T12:26:20.349Z,0.43
2023-03-22T12:29:09.756Z,0.38
2023-03-22T12:31:42.634Z,1.08
2023-03-22T12:34:21.761Z,1.77
2023-03-22T12:36:52.581Z,2.03
2023-03-22T12:39:30.779Z,0.45
2023-03-22T12:42:03.476Z,1.85
2023-03-22T12:44:39.296Z,0.80
2023-03-22T12:47:15.129Z,0.65
2023-03-22T12:50:15.275Z,1.33
2023-03-22T12:52:46.706Z,1.63
2023-03-22T12:55:33.225Z,0.98
2023-03-22T12:58:00.214Z,1.23
2023-03-22T13:00:54.903Z,1.65
2023-03-22T13:03:44.334Z,2.20
2023-03-22T13:06:34.136Z,2.63
2023-03-22T13:09:34.652Z,5.88
2023-03-22T13:12:31.991Z,2.10
2023-03-22T13:15:47.219Z,3.20
2023-03-22T13:18:36.329Z,2.55
2023-03-22T13:21:21.435Z,1.75
2023-03-22T13:24:00.737Z,4.47
2023-03-22T13:26:51.673Z,4.88
2023-03-22T13:29:32.843Z,4.47
2023-03-22T13:32:01.162Z,3.00
2023-03-22T13:34:43.548Z,5.38
2023-03-22T13:37:16.604Z,4.65
2023-03-22T13:39:48.044Z,4.20
2023-03-22T13:42:20.009Z,6.40
2023-03-22T13:44:51.724Z,4.80
2023-03-22T13:47:44.958Z,6.43
2023-03-22T13:50:35.063Z,5.63
2023-03-22T13:53:07.563Z,6.47
2023-03-22T13:55:42.400Z,6.20
2023-03-22T13:58:14.110Z,9.23
2023-03-22T14:00:48.142Z,7.90
2023-03-22T14:03:21.297Z,7.85
2023-03-22T14:05:50.836Z,7.55
2023-03-22T14:08:22.044Z,7.32
2023-03-22T14:11:12.044Z,8.05
2023-03-22T14:13:51.377Z,8.63
2023-03-22T14:16:43.631Z,7.20
2023-03-22T14:19:19.178Z,8.68
